LQZRB SANE-SADF
Flight info
| Callsign | LQZRB |
|---|---|
| Flight time | N/A |
| Altitude | 19000 |
| Route | DIKOR1C DIKOR UL550 ROS UT672 MULTA UW24 SNT |
| Aircraft | BE9L/L-SCDFG/SB1 |
Departure
| Time | N/A |
|---|---|
| Airport | Vicecomodoro Angel D. La Paz Aragonés Airport (SANE) |
Arrival
| Time | 2026-04-24 19:59 |
|---|---|
| Airport | San Fernando Airport (SADF) |
| Time | Latitude | Longitude | Altitude | Speed | Heading |
|---|---|---|---|---|---|
| 2026-04-24 18:54 | -31.22514 | -62.05476 | 19017 ft | 279 kts | 148° |
| 2026-04-24 18:55 | -31.25795 | -62.03043 | 19018 ft | 279 kts | 148° |
| 2026-04-24 18:55 | -31.27445 | -62.01817 | 19018 ft | 279 kts | 148° |
| 2026-04-24 18:55 | -31.29093 | -62.00591 | 19018 ft | 279 kts | 148° |
| 2026-04-24 18:56 | -31.30737 | -61.99368 | 19018 ft | 279 kts | 148° |
| 2026-04-24 18:56 | -31.32387 | -61.98147 | 19019 ft | 279 kts | 148° |
| 2026-04-24 18:56 | -31.34037 | -61.96923 | 19019 ft | 279 kts | 148° |
| 2026-04-24 18:56 | -31.35702 | -61.95681 | 19019 ft | 279 kts | 148° |
| 2026-04-24 18:57 | -31.37351 | -61.94452 | 19019 ft | 279 kts | 148° |
| 2026-04-24 18:57 | -31.38997 | -61.93225 | 19019 ft | 279 kts | 148° |
| 2026-04-24 18:57 | -31.40648 | -61.91995 | 19019 ft | 279 kts | 148° |
| 2026-04-24 18:57 | -31.42300 | -61.90764 | 19020 ft | 279 kts | 148° |
| 2026-04-24 18:58 | -31.43940 | -61.89541 | 19020 ft | 279 kts | 148° |
| 2026-04-24 18:58 | -31.45603 | -61.88301 | 19020 ft | 279 kts | 148° |
| 2026-04-24 18:58 | -31.47240 | -61.87079 | 19020 ft | 279 kts | 148° |
| 2026-04-24 18:58 | -31.48912 | -61.85831 | 19020 ft | 279 kts | 148° |
| 2026-04-24 18:59 | -31.50567 | -61.84596 | 19021 ft | 279 kts | 148° |
| 2026-04-24 18:59 | -31.52214 | -61.83364 | 19021 ft | 279 kts | 148° |
| 2026-04-24 18:59 | -31.53873 | -61.82124 | 19021 ft | 279 kts | 148° |
| 2026-04-24 18:59 | -31.55495 | -61.80912 | 19021 ft | 279 kts | 148° |
| 2026-04-24 19:00 | -31.57169 | -61.79659 | 19021 ft | 279 kts | 148° |
| 2026-04-24 19:00 | -31.58802 | -61.78437 | 19021 ft | 279 kts | 148° |
| 2026-04-24 19:00 | -31.60466 | -61.77192 | 19022 ft | 279 kts | 148° |
| 2026-04-24 19:00 | -31.62115 | -61.75956 | 19022 ft | 279 kts | 148° |
| 2026-04-24 19:01 | -31.63774 | -61.74714 | 19022 ft | 279 kts | 148° |
| 2026-04-24 19:01 | -31.65407 | -61.73489 | 19022 ft | 279 kts | 148° |
| 2026-04-24 19:01 | -31.67064 | -61.72247 | 19022 ft | 279 kts | 148° |
| 2026-04-24 19:01 | -31.68711 | -61.71011 | 19023 ft | 279 kts | 148° |
| 2026-04-24 19:02 | -31.70361 | -61.69771 | 19022 ft | 280 kts | 148° |
| 2026-04-24 19:02 | -31.71994 | -61.68544 | 19023 ft | 280 kts | 148° |
| 2026-04-24 19:02 | -31.73659 | -61.67294 | 19023 ft | 280 kts | 148° |
| 2026-04-24 19:02 | -31.75303 | -61.66059 | 19023 ft | 280 kts | 148° |
| 2026-04-24 19:03 | -31.76953 | -61.64818 | 19024 ft | 280 kts | 148° |
| 2026-04-24 19:03 | -31.78617 | -61.63567 | 19023 ft | 280 kts | 148° |
| 2026-04-24 19:03 | -31.80248 | -61.62338 | 19024 ft | 280 kts | 148° |
| 2026-04-24 19:03 | -31.81899 | -61.61094 | 19024 ft | 280 kts | 148° |
| 2026-04-24 19:04 | -31.83551 | -61.59849 | 19024 ft | 280 kts | 148° |
| 2026-04-24 19:04 | -31.85207 | -61.58601 | 19024 ft | 280 kts | 148° |
| 2026-04-24 19:04 | -31.86853 | -61.57360 | 19025 ft | 280 kts | 148° |
| 2026-04-24 19:04 | -31.88499 | -61.56118 | 19025 ft | 280 kts | 148° |
| 2026-04-24 19:05 | -31.90107 | -61.54897 | 19001 ft | 266 kts | 147° |
| 2026-04-24 19:05 | -31.91643 | -61.53741 | 18988 ft | 245 kts | 148° |
| 2026-04-24 19:05 | -31.93005 | -61.52714 | 18973 ft | 217 kts | 148° |
| 2026-04-24 19:05 | -31.94216 | -61.51801 | 18976 ft | 193 kts | 147° |
| 2026-04-24 19:06 | -31.95370 | -61.50915 | 19037 ft | 206 kts | 147° |
| 2026-04-24 19:06 | -31.96221 | -61.50265 | 19066 ft | 220 kts | 147° |
| 2026-04-24 19:06 | -31.97373 | -61.49393 | 19061 ft | 235 kts | 148° |
| 2026-04-24 19:06 | -31.98787 | -61.48330 | 19054 ft | 248 kts | 148° |
| 2026-04-24 19:07 | -32.00259 | -61.47183 | 19124 ft | 252 kts | 143° |
| 2026-04-24 19:07 | -32.01581 | -61.45830 | 19322 ft | 250 kts | 143° |
| 2026-04-24 19:07 | -32.03015 | -61.44642 | 19378 ft | 256 kts | 147° |
| 2026-04-24 19:07 | -32.04545 | -61.43451 | 19318 ft | 263 kts | 148° |
| 2026-04-24 19:08 | -32.06100 | -61.42266 | 19266 ft | 268 kts | 148° |
| 2026-04-24 19:08 | -32.07696 | -61.41059 | 19208 ft | 272 kts | 148° |
| 2026-04-24 19:08 | -32.09312 | -61.39840 | 19143 ft | 274 kts | 148° |
| 2026-04-24 19:08 | -32.10963 | -61.38597 | 19060 ft | 276 kts | 148° |
| 2026-04-24 19:09 | -32.12603 | -61.37361 | 19018 ft | 275 kts | 148° |
| 2026-04-24 19:09 | -32.14212 | -61.36151 | 19017 ft | 273 kts | 148° |
| 2026-04-24 19:09 | -32.15807 | -61.34951 | 19018 ft | 272 kts | 148° |
| 2026-04-24 19:09 | -32.17429 | -61.33730 | 19014 ft | 271 kts | 148° |
| 2026-04-24 19:10 | -32.19031 | -61.32522 | 19015 ft | 270 kts | 148° |
| 2026-04-24 19:10 | -32.20622 | -61.31322 | 19016 ft | 270 kts | 147° |
| 2026-04-24 19:10 | -32.22209 | -61.30125 | 19016 ft | 270 kts | 147° |
| 2026-04-24 19:10 | -32.23799 | -61.28924 | 19016 ft | 269 kts | 147° |
| 2026-04-24 19:11 | -32.25391 | -61.27722 | 19016 ft | 269 kts | 147° |
| 2026-04-24 19:11 | -32.26996 | -61.26510 | 19017 ft | 269 kts | 148° |
| 2026-04-24 19:11 | -32.28589 | -61.25306 | 19017 ft | 269 kts | 147° |
| 2026-04-24 19:11 | -32.30165 | -61.24114 | 19017 ft | 269 kts | 147° |
| 2026-04-24 19:12 | -32.31780 | -61.22893 | 19017 ft | 269 kts | 147° |
| 2026-04-24 19:12 | -32.33378 | -61.21684 | 19017 ft | 269 kts | 147° |
| 2026-04-24 19:12 | -32.34977 | -61.20474 | 19018 ft | 269 kts | 147° |
| 2026-04-24 19:12 | -32.36573 | -61.19266 | 19018 ft | 269 kts | 147° |
| 2026-04-24 19:13 | -32.37640 | -61.18459 | 19018 ft | 269 kts | 147° |
| 2026-04-24 19:13 | -32.39753 | -61.16858 | 19018 ft | 269 kts | 147° |
| 2026-04-24 19:13 | -32.41350 | -61.15653 | 19018 ft | 270 kts | 148° |
| 2026-04-24 19:13 | -32.42959 | -61.14437 | 19018 ft | 270 kts | 147° |
| 2026-04-24 19:14 | -32.44553 | -61.13228 | 19019 ft | 270 kts | 147° |
| 2026-04-24 19:14 | -32.46154 | -61.12014 | 19019 ft | 270 kts | 147° |
| 2026-04-24 19:14 | -32.47740 | -61.10811 | 19019 ft | 270 kts | 147° |
| 2026-04-24 19:14 | -32.49353 | -61.09586 | 19019 ft | 270 kts | 147° |
| 2026-04-24 19:15 | -32.50941 | -61.08380 | 19019 ft | 270 kts | 147° |
| 2026-04-24 19:15 | -32.52544 | -61.07162 | 19020 ft | 271 kts | 147° |
| 2026-04-24 19:15 | -32.54153 | -61.05938 | 19020 ft | 271 kts | 147° |
| 2026-04-24 19:15 | -32.55758 | -61.04716 | 19020 ft | 271 kts | 147° |
| 2026-04-24 19:16 | -32.58963 | -61.02279 | 19020 ft | 271 kts | 147° |
| 2026-04-24 19:16 | -32.60583 | -61.01044 | 19021 ft | 271 kts | 147° |
| 2026-04-24 19:16 | -32.62206 | -60.99809 | 19021 ft | 272 kts | 147° |
| 2026-04-24 19:17 | -32.63842 | -60.98555 | 19021 ft | 272 kts | 146° |
| 2026-04-24 19:17 | -32.65447 | -60.97324 | 19021 ft | 271 kts | 146° |
| 2026-04-24 19:17 | -32.67085 | -60.96070 | 19021 ft | 271 kts | 146° |
| 2026-04-24 19:17 | -32.68705 | -60.94833 | 19022 ft | 271 kts | 146° |
| 2026-04-24 19:18 | -32.70336 | -60.93586 | 19022 ft | 272 kts | 146° |
| 2026-04-24 19:18 | -32.71993 | -60.92320 | 19022 ft | 272 kts | 146° |
| 2026-04-24 19:18 | -32.73611 | -60.91083 | 19022 ft | 272 kts | 146° |
| 2026-04-24 19:18 | -32.75251 | -60.89829 | 19023 ft | 272 kts | 146° |
| 2026-04-24 19:19 | -32.76875 | -60.88586 | 19023 ft | 272 kts | 146° |
| 2026-04-24 19:19 | -32.78490 | -60.87350 | 19023 ft | 272 kts | 146° |
| 2026-04-24 19:19 | -32.80122 | -60.86100 | 19023 ft | 272 kts | 146° |
| 2026-04-24 19:19 | -32.81762 | -60.84843 | 19023 ft | 272 kts | 146° |
| 2026-04-24 19:20 | -32.83405 | -60.83584 | 19024 ft | 272 kts | 146° |
| 2026-04-24 19:20 | -32.85031 | -60.82337 | 19024 ft | 272 kts | 146° |
| 2026-04-24 19:20 | -32.86659 | -60.81089 | 19024 ft | 273 kts | 146° |
| 2026-04-24 19:20 | -32.88291 | -60.79837 | 19024 ft | 273 kts | 146° |
| 2026-04-24 19:21 | -32.89914 | -60.78592 | 19024 ft | 273 kts | 147° |
| 2026-04-24 19:21 | -32.91528 | -60.77256 | 19018 ft | 272 kts | 139° |
| 2026-04-24 19:21 | -32.93005 | -60.75789 | 19026 ft | 272 kts | 138° |
| 2026-04-24 19:21 | -32.94485 | -60.74307 | 19025 ft | 272 kts | 138° |
| 2026-04-24 19:22 | -32.95470 | -60.73320 | 19025 ft | 272 kts | 138° |
| 2026-04-24 19:22 | -32.97454 | -60.71336 | 19027 ft | 272 kts | 138° |
| 2026-04-24 19:22 | -32.98951 | -60.69839 | 19026 ft | 271 kts | 138° |
| 2026-04-24 19:22 | -33.00436 | -60.68353 | 19026 ft | 270 kts | 138° |
| 2026-04-24 19:23 | -33.01883 | -60.66905 | 19026 ft | 269 kts | 139° |
| 2026-04-24 19:23 | -33.03341 | -60.65445 | 19025 ft | 268 kts | 139° |
| 2026-04-24 19:23 | -33.04790 | -60.63992 | 19025 ft | 267 kts | 139° |
| 2026-04-24 19:23 | -33.06237 | -60.62541 | 19025 ft | 266 kts | 139° |
| 2026-04-24 19:24 | -33.07678 | -60.61097 | 19025 ft | 265 kts | 139° |
| 2026-04-24 19:24 | -33.09094 | -60.59676 | 19024 ft | 264 kts | 139° |
| 2026-04-24 19:24 | -33.10501 | -60.58264 | 19022 ft | 262 kts | 139° |
| 2026-04-24 19:24 | -33.11946 | -60.56814 | 19017 ft | 260 kts | 139° |
| 2026-04-24 19:25 | -33.13343 | -60.55410 | 19017 ft | 259 kts | 139° |
| 2026-04-24 19:25 | -33.14737 | -60.54010 | 19018 ft | 258 kts | 139° |
| 2026-04-24 19:25 | -33.16125 | -60.52616 | 19018 ft | 258 kts | 139° |
| 2026-04-24 19:25 | -33.17501 | -60.51233 | 19019 ft | 258 kts | 139° |
| 2026-04-24 19:26 | -33.18890 | -60.49835 | 19019 ft | 257 kts | 139° |
| 2026-04-24 19:26 | -33.20285 | -60.48433 | 19020 ft | 258 kts | 139° |
| 2026-04-24 19:26 | -33.21679 | -60.47028 | 19019 ft | 257 kts | 139° |
| 2026-04-24 19:26 | -33.23082 | -60.45614 | 19020 ft | 257 kts | 139° |
| 2026-04-24 19:27 | -33.24453 | -60.44235 | 19019 ft | 257 kts | 139° |
| 2026-04-24 19:27 | -33.25836 | -60.42839 | 19020 ft | 257 kts | 139° |
| 2026-04-24 19:27 | -33.27240 | -60.41421 | 19020 ft | 257 kts | 139° |
| 2026-04-24 19:27 | -33.28643 | -60.40006 | 19024 ft | 259 kts | 139° |
| 2026-04-24 19:28 | -33.30018 | -60.38618 | 19023 ft | 261 kts | 139° |
| 2026-04-24 19:28 | -33.31437 | -60.37185 | 19023 ft | 262 kts | 139° |
| 2026-04-24 19:28 | -33.32875 | -60.35732 | 19022 ft | 262 kts | 139° |
| 2026-04-24 19:28 | -33.34329 | -60.34263 | 19021 ft | 263 kts | 139° |
| 2026-04-24 19:29 | -33.37303 | -60.31252 | 19018 ft | 263 kts | 139° |
| 2026-04-24 19:29 | -33.38620 | -60.29917 | 19018 ft | 263 kts | 139° |
| 2026-04-24 19:29 | -33.39487 | -60.29038 | 19018 ft | 263 kts | 139° |
| 2026-04-24 19:30 | -33.40962 | -60.27544 | 19019 ft | 263 kts | 139° |
| 2026-04-24 19:30 | -33.42373 | -60.26114 | 19019 ft | 263 kts | 139° |
| 2026-04-24 19:30 | -33.43906 | -60.24559 | 19019 ft | 263 kts | 139° |
| 2026-04-24 19:30 | -33.45377 | -60.23068 | 19019 ft | 263 kts | 139° |
| 2026-04-24 19:31 | -33.46886 | -60.21537 | 19019 ft | 263 kts | 139° |
| 2026-04-24 19:31 | -33.48368 | -60.20032 | 19019 ft | 263 kts | 139° |
| 2026-04-24 19:31 | -33.49855 | -60.18522 | 19019 ft | 263 kts | 139° |
| 2026-04-24 19:31 | -33.51414 | -60.16937 | 19019 ft | 263 kts | 139° |
| 2026-04-24 19:32 | -33.52862 | -60.15464 | 19020 ft | 263 kts | 139° |
| 2026-04-24 19:32 | -33.54270 | -60.14032 | 19020 ft | 263 kts | 139° |
| 2026-04-24 19:32 | -33.55689 | -60.12588 | 19020 ft | 263 kts | 139° |
| 2026-04-24 19:32 | -33.57097 | -60.11155 | 19020 ft | 263 kts | 139° |
| 2026-04-24 19:33 | -33.58519 | -60.09708 | 19020 ft | 263 kts | 139° |
| 2026-04-24 19:33 | -33.59936 | -60.08264 | 19020 ft | 263 kts | 139° |
| 2026-04-24 19:33 | -33.61328 | -60.06846 | 19020 ft | 263 kts | 139° |
| 2026-04-24 19:33 | -33.62750 | -60.05397 | 19020 ft | 263 kts | 139° |
| 2026-04-24 19:34 | -33.64180 | -60.03937 | 19021 ft | 263 kts | 139° |
| 2026-04-24 19:34 | -33.65581 | -60.02507 | 19021 ft | 263 kts | 139° |
| 2026-04-24 19:34 | -33.66997 | -60.01060 | 19021 ft | 263 kts | 139° |
| 2026-04-24 19:34 | -33.68412 | -59.99614 | 19021 ft | 263 kts | 139° |
| 2026-04-24 19:35 | -33.69853 | -59.98141 | 19021 ft | 264 kts | 139° |
| 2026-04-24 19:35 | -33.71248 | -59.96712 | 19021 ft | 264 kts | 139° |
| 2026-04-24 19:35 | -33.72687 | -59.95238 | 19021 ft | 264 kts | 139° |
| 2026-04-24 19:35 | -33.74098 | -59.93794 | 19021 ft | 264 kts | 139° |
| 2026-04-24 19:36 | -33.75519 | -59.92339 | 19023 ft | 264 kts | 139° |
| 2026-04-24 19:36 | -33.76939 | -59.90883 | 19022 ft | 264 kts | 139° |
| 2026-04-24 19:36 | -33.78371 | -59.89416 | 19021 ft | 264 kts | 139° |
| 2026-04-24 19:36 | -33.79780 | -59.87970 | 19021 ft | 264 kts | 139° |
| 2026-04-24 19:37 | -33.81201 | -59.86512 | 19022 ft | 264 kts | 139° |
| 2026-04-24 19:37 | -33.82605 | -59.85072 | 19023 ft | 264 kts | 139° |
| 2026-04-24 19:37 | -33.83996 | -59.83643 | 19026 ft | 264 kts | 139° |
| 2026-04-24 19:37 | -33.85403 | -59.82197 | 19028 ft | 264 kts | 139° |
| 2026-04-24 19:38 | -33.86827 | -59.80732 | 19022 ft | 265 kts | 139° |
| 2026-04-24 19:38 | -33.88216 | -59.79300 | 19022 ft | 265 kts | 139° |
| 2026-04-24 19:38 | -33.89655 | -59.77819 | 19023 ft | 264 kts | 139° |
| 2026-04-24 19:38 | -33.91065 | -59.76372 | 19022 ft | 264 kts | 139° |
| 2026-04-24 19:39 | -33.92479 | -59.74917 | 19023 ft | 264 kts | 139° |
| 2026-04-24 19:39 | -33.93898 | -59.73455 | 19023 ft | 264 kts | 139° |
| 2026-04-24 19:39 | -33.95321 | -59.71989 | 19024 ft | 265 kts | 139° |
| 2026-04-24 19:39 | -33.96724 | -59.70542 | 19024 ft | 265 kts | 139° |
| 2026-04-24 19:40 | -33.98115 | -59.69107 | 19024 ft | 265 kts | 139° |
| 2026-04-24 19:40 | -33.99551 | -59.67625 | 19023 ft | 265 kts | 139° |
| 2026-04-24 19:40 | -34.00972 | -59.66159 | 19024 ft | 265 kts | 139° |
| 2026-04-24 19:40 | -34.02388 | -59.64696 | 19024 ft | 265 kts | 139° |
| 2026-04-24 19:41 | -34.03797 | -59.63239 | 19023 ft | 265 kts | 139° |
| 2026-04-24 19:41 | -34.05222 | -59.61764 | 19024 ft | 265 kts | 139° |
| 2026-04-24 19:41 | -34.06636 | -59.60300 | 19023 ft | 265 kts | 139° |
| 2026-04-24 19:41 | -34.08055 | -59.58829 | 19023 ft | 265 kts | 138° |
| 2026-04-24 19:42 | -34.09455 | -59.57371 | 19024 ft | 265 kts | 138° |
| 2026-04-24 19:42 | -34.10883 | -59.55891 | 19020 ft | 265 kts | 138° |
| 2026-04-24 19:42 | -34.12331 | -59.54388 | 19019 ft | 265 kts | 138° |
| 2026-04-24 19:42 | -34.13724 | -59.52944 | 19019 ft | 265 kts | 139° |
| 2026-04-24 19:43 | -34.15149 | -59.51465 | 19019 ft | 265 kts | 138° |
| 2026-04-24 19:43 | -34.16574 | -59.49986 | 19019 ft | 265 kts | 138° |
| 2026-04-24 19:43 | -34.17989 | -59.48517 | 19019 ft | 265 kts | 138° |
| 2026-04-24 19:43 | -34.19405 | -59.47046 | 19019 ft | 264 kts | 139° |
| 2026-04-24 19:44 | -34.20650 | -59.45396 | 19018 ft | 261 kts | 124° |
| 2026-04-24 19:44 | -34.21661 | -59.43641 | 18693 ft | 252 kts | 122° |
| 2026-04-24 19:44 | -34.22672 | -59.41812 | 18006 ft | 262 kts | 121° |
| 2026-04-24 19:44 | -34.23682 | -59.39959 | 17789 ft | 253 kts | 121° |
| 2026-04-24 19:45 | -34.24657 | -59.38160 | 17445 ft | 252 kts | 121° |
| 2026-04-24 19:45 | -34.25629 | -59.36362 | 17123 ft | 250 kts | 121° |
| 2026-04-24 19:45 | -34.26583 | -59.34592 | 16818 ft | 248 kts | 120° |
| 2026-04-24 19:45 | -34.27551 | -59.32791 | 16506 ft | 246 kts | 120° |
| 2026-04-24 19:46 | -34.28500 | -59.31025 | 16207 ft | 244 kts | 120° |
| 2026-04-24 19:46 | -34.29441 | -59.29275 | 15915 ft | 243 kts | 120° |
| 2026-04-24 19:46 | -34.30370 | -59.27546 | 15632 ft | 241 kts | 120° |
| 2026-04-24 19:46 | -34.31293 | -59.25828 | 15357 ft | 239 kts | 120° |
| 2026-04-24 19:47 | -34.32198 | -59.24143 | 15091 ft | 238 kts | 120° |
| 2026-04-24 19:47 | -34.33107 | -59.22449 | 14829 ft | 236 kts | 121° |
| 2026-04-24 19:47 | -34.34023 | -59.20742 | 14571 ft | 235 kts | 121° |
| 2026-04-24 19:47 | -34.34921 | -59.19068 | 14322 ft | 233 kts | 121° |
| 2026-04-24 19:48 | -34.35826 | -59.17381 | 14076 ft | 232 kts | 121° |
| 2026-04-24 19:48 | -34.36713 | -59.15742 | 13842 ft | 231 kts | 121° |
| 2026-04-24 19:48 | -34.38484 | -59.12445 | 13383 ft | 228 kts | 121° |
| 2026-04-24 19:49 | -34.40254 | -59.09141 | 12944 ft | 226 kts | 121° |
| 2026-04-24 19:49 | -34.42002 | -59.05850 | 12461 ft | 226 kts | 121° |
| 2026-04-24 19:50 | -34.44638 | -59.00914 | 11631 ft | 227 kts | 122° |
| 2026-04-24 19:50 | -34.45507 | -58.99281 | 11383 ft | 226 kts | 122° |
| 2026-04-24 19:51 | -34.47250 | -58.96013 | 10861 ft | 220 kts | 122° |
| 2026-04-24 19:51 | -34.48102 | -58.94413 | 10271 ft | 226 kts | 122° |
| 2026-04-24 19:52 | -34.49857 | -58.91121 | 9282 ft | 223 kts | 122° |
| 2026-04-24 19:52 | -34.50712 | -58.89513 | 8804 ft | 222 kts | 122° |
| 2026-04-24 19:52 | -34.51564 | -58.87907 | 8348 ft | 220 kts | 122° |
| 2026-04-24 19:52 | -34.52421 | -58.86299 | 7893 ft | 216 kts | 122° |
| 2026-04-24 19:53 | -34.53255 | -58.84731 | 7213 ft | 214 kts | 122° |
| 2026-04-24 19:53 | -34.54091 | -58.83158 | 6484 ft | 212 kts | 122° |
| 2026-04-24 19:53 | -34.55700 | -58.80112 | 5443 ft | 203 kts | 121° |
| 2026-04-24 19:54 | -34.56108 | -58.78464 | 4691 ft | 199 kts | 95° |
| 2026-04-24 19:54 | -34.56103 | -58.76794 | 4337 ft | 173 kts | 88° |
| 2026-04-24 19:54 | -34.56033 | -58.75349 | 4023 ft | 165 kts | 85° |
| 2026-04-24 19:54 | -34.55953 | -58.73965 | 3776 ft | 158 kts | 84° |
| 2026-04-24 19:55 | -34.55898 | -58.73076 | 3549 ft | 157 kts | 84° |
| 2026-04-24 19:55 | -34.55551 | -58.71323 | 3208 ft | 166 kts | 57° |
| 2026-04-24 19:55 | -34.54828 | -58.70232 | 3191 ft | 151 kts | 46° |
| 2026-04-24 19:55 | -34.54074 | -58.69290 | 2704 ft | 158 kts | 44° |
| 2026-04-24 19:56 | -34.53294 | -58.68333 | 2292 ft | 153 kts | 45° |
| 2026-04-24 19:56 | -34.52486 | -58.67361 | 1910 ft | 152 kts | 45° |
| 2026-04-24 19:56 | -34.51697 | -58.66424 | 1655 ft | 152 kts | 44° |
| 2026-04-24 19:56 | -34.50904 | -58.65492 | 1436 ft | 154 kts | 44° |
| 2026-04-24 19:57 | -34.50138 | -58.64595 | 1191 ft | 140 kts | 44° |
| 2026-04-24 19:57 | -34.49486 | -58.63832 | 964 ft | 122 kts | 44° |
| 2026-04-24 19:57 | -34.48858 | -58.63092 | 829 ft | 127 kts | 45° |
| 2026-04-24 19:57 | -34.48273 | -58.62407 | 655 ft | 94 kts | 44° |
| 2026-04-24 19:58 | -34.47823 | -58.61876 | 588 ft | 90 kts | 43° |
| 2026-04-24 19:58 | -34.47342 | -58.61313 | 489 ft | 94 kts | 49° |
| 2026-04-24 19:58 | -34.46896 | -58.60787 | 368 ft | 87 kts | 45° |
| 2026-04-24 19:58 | -34.46450 | -58.60280 | 233 ft | 82 kts | 42° |
| 2026-04-24 19:59 | -34.46031 | -58.59779 | 98 ft | 86 kts | 43° |
| 2026-04-24 19:59 | -34.45622 | -58.59293 | 22 ft | 73 kts | 43° |
| 2026-04-24 19:59 | -34.45337 | -58.58950 | 11 ft | 46 kts | 43° |
| 2026-04-24 19:59 | -34.45132 | -58.58717 | 11 ft | 35 kts | 46° |
| 2026-04-24 20:00 | -34.44999 | -58.58553 | 11 ft | 20 kts | 41° |
| 2026-04-24 20:00 | -34.44884 | -58.58420 | 11 ft | 25 kts | 48° |
| 2026-04-24 20:00 | -34.44927 | -58.58260 | 11 ft | 22 kts | 149° |
| 2026-04-24 20:00 | -34.45038 | -58.58179 | 11 ft | 15 kts | 147° |
| 2026-04-24 20:01 | -34.45121 | -58.58116 | 11 ft | 12 kts | 152° |
| 2026-04-24 20:01 | -34.45196 | -58.58066 | 11 ft | 12 kts | 147° |
| 2026-04-24 20:01 | -34.45267 | -58.58015 | 11 ft | 11 kts | 149° |
| 2026-04-24 20:01 | -34.45333 | -58.57985 | 11 ft | 7 kts | 218° |
| 2026-04-24 20:02 | -34.45349 | -58.58019 | 11 ft | 7 kts | 244° |
| 2026-04-24 20:02 | -34.45400 | -58.58143 | 11 ft | 15 kts | 245° |
| 2026-04-24 20:02 | -34.45454 | -58.58264 | 11 ft | 15 kts | 244° |
| 2026-04-24 20:02 | -34.45495 | -58.58362 | 11 ft | 9 kts | 244° |
| 2026-04-24 20:03 | -34.45519 | -58.58371 | 11 ft | 4 kts | 134° |
| 2026-04-24 20:03 | -34.45537 | -58.58363 | 11 ft | 4 kts | 200° |
| 2026-04-24 20:03 | -34.45545 | -58.58366 | 11 ft | 0 kts | 199° |
| 2026-04-24 20:04 | -34.45544 | -58.58366 | 11 ft | 0 kts | 199° |